Torm Horizon — OYNM2 — position and weather

sailwx.info

Track history (hours):
 
Tides and Currents Weather Stations Pressure Air Temp Water Temp Dewpoint Dewpoint Depression Visibility Wind Speed Wind Dir Waves Ship Positions

Torm Horizon

Last reported at 2017-Mar-23 17:33 UTC. Time now 2017-Mar-23 18:13 UTC.
Position S 29°53' E 031°02'.

Length 183 m; draft 9.7 m.

Type: Ship. MMSI: 220566000.

Date/timePositionNaut miles runAvg speedWind from/ knotsBaromVisibWave heightAir tempDewpointWater temp
2017-Mar-23 17:33S 29°53' E 031°02'0 0.0
2017-Mar-23 16:30S 29°53' E 031°02'0 0.0
2017-Mar-23 15:30S 29°53' E 031°02'0 0.0
2017-Mar-23 14:30S 29°53' E 031°02'0 0.0
2017-Mar-23 13:30S 29°53' E 031°02'0 0.0
2017-Mar-23 12:33S 29°53' E 031°02'0 0.0
2017-Mar-23 11:33S 29°53' E 031°02'0 0.0
2017-Mar-23 10:30S 29°53' E 031°02'0 0.0
2017-Mar-23 09:30S 29°53' E 031°02'0 0.0
2017-Mar-23 08:33S 29°53' E 031°02'0 0.0
2017-Mar-23 07:30S 29°53' E 031°02'0 0.0
2017-Mar-23 06:33S 29°53' E 031°02'0 0.0
2017-Mar-23 05:30S 29°53' E 031°02'0 0.0
2017-Mar-23 04:30S 29°53' E 031°02'0 0.0
2017-Mar-23 03:33S 29°53' E 031°02'0 0.0
2017-Mar-23 02:33S 29°53' E 031°02'0 0.0
2017-Mar-23 01:24S 29°53' E 031°02'0 0.0
2017-Mar-23 00:30S 29°53' E 031°02'0 0.0
2017-Mar-22 23:30S 29°53' E 031°02'0 0.0
2017-Mar-22 22:33S 29°53' E 031°02'0 0.0
2017-Mar-22 21:30S 29°53' E 031°02'0 0.0
2017-Mar-22 20:33S 29°53' E 031°02'6 5.9
2017-Mar-22 19:33S 29°48' E 031°06'2 1.6
2017-Mar-22 18:33S 29°47' E 031°07'1 1.1
2017-Mar-22 17:29S 29°46' E 031°07'0 0.0
2017-Mar-22 16:29S 29°46' E 031°07'0 0.0
2017-Mar-22 15:29S 29°46' E 031°07'0 0.0
2017-Mar-22 14:32S 29°46' E 031°07'0 0.0
2017-Mar-22 13:29S 29°46' E 031°07'0 0.0
2017-Mar-22 12:29S 29°46' E 031°07'0 0.0
2017-Mar-22 11:29S 29°46' E 031°07'0 0.0
2017-Mar-22 10:29S 29°46' E 031°07'0 0.0
2017-Mar-22 09:29S 29°46' E 031°07'0 0.0
2017-Mar-22 08:29S 29°46' E 031°07'0 0.0
2017-Mar-22 07:29S 29°46' E 031°07'0 0.0
2017-Mar-22 06:32S 29°46' E 031°07'0 0.0
2017-Mar-22 05:32S 29°46' E 031°07'0 0.0
2017-Mar-22 04:32S 29°46' E 031°07'0 0.1
2017-Mar-22 03:32S 29°46' E 031°07'4 3.8
2017-Mar-22 02:33S 29°49' E 031°05'5 4.9
2017-Mar-22 01:29S 29°53' E 031°02'0 0.0
2017-Mar-22 00:29S 29°53' E 031°02'0 0.0
2017-Mar-21 23:29S 29°53' E 031°02'0 0.0
2017-Mar-21 22:32S 29°53' E 031°02'0 0.0
2017-Mar-21 21:29S 29°53' E 031°02'0 0.0
2017-Mar-21 20:32S 29°53' E 031°02'0 0.0
2017-Mar-21 19:32S 29°53' E 031°02'0 0.0
2017-Mar-21 18:32S 29°53' E 031°02'0 0.0
2017-Mar-21 17:29S 29°53' E 031°02'0 0.0
2017-Mar-21 16:29S 29°53' E 031°02'0 0.0
2017-Mar-21 15:29S 29°53' E 031°02'0 0.0
2017-Mar-21 14:29S 29°53' E 031°02'0 0.0
2017-Mar-21 13:29S 29°53' E 031°02'0 0.0
2017-Mar-21 12:32S 29°53' E 031°02'0 0.0
2017-Mar-21 11:32S 29°53' E 031°02'0 0.0
2017-Mar-21 10:32S 29°53' E 031°02'0 0.0
2017-Mar-21 09:29S 29°53' E 031°02'0 0.0
2017-Mar-21 08:29S 29°53' E 031°02'0 0.0
2017-Mar-21 07:29S 29°53' E 031°02'0 0.0
2017-Mar-21 06:32S 29°53' E 031°02'0 0.0
2017-Mar-21 05:32S 29°53' E 031°02'0 0.0
2017-Mar-21 04:29S 29°53' E 031°02'0 0.0
2017-Mar-21 03:29S 29°53' E 031°02'0 0.0
2017-Mar-21 02:32S 29°53' E 031°02'0 0.0
2017-Mar-21 01:32S 29°53' E 031°02'0 0.0
2017-Mar-21 00:29S 29°53' E 031°02'0 0.0
2017-Mar-20 23:32S 29°53' E 031°02'0 0.0
2017-Mar-20 22:32S 29°53' E 031°02'0 0.0
2017-Mar-20 21:32S 29°53' E 031°02'0 0.0
2017-Mar-20 20:32S 29°53' E 031°02'0 0.0
2017-Mar-20 19:32S 29°53' E 031°02'0 0.0
2017-Mar-20 18:32S 29°53' E 031°02'0 0.0
2017-Mar-20 17:31S 29°53' E 031°02'0 0.0
2017-Mar-20 16:31S 29°53' E 031°02'0 0.0
2017-Mar-20 15:31S 29°53' E 031°02'0 0.0
2017-Mar-20 14:28S 29°53' E 031°02'0 0.0
2017-Mar-20 13:28S 29°53' E 031°02'0 0.0
2017-Mar-20 12:28S 29°53' E 031°02'0 0.0
2017-Mar-20 11:28S 29°53' E 031°02'0 0.0
2017-Mar-20 10:28S 29°53' E 031°02'0 0.0
2017-Mar-20 09:28S 29°53' E 031°02'0 0.0
2017-Mar-20 08:28S 29°53' E 031°02'0 0.0
2017-Mar-20 07:31S 29°53' E 031°02'0 0.0
2017-Mar-20 06:31S 29°53' E 031°02'0 0.0
2017-Mar-20 05:31S 29°53' E 031°02'0 0.0
2017-Mar-20 04:31S 29°53' E 031°02'0 0.0
2017-Mar-20 03:31S 29°53' E 031°02'0 0.0
2017-Mar-20 02:28S 29°53' E 031°02'0 0.0
2017-Mar-20 01:31S 29°53' E 031°02'0 0.0
2017-Mar-20 00:31S 29°53' E 031°02'0 0.0
2017-Mar-19 23:31S 29°53' E 031°02'0 0.0
2017-Mar-19 22:31S 29°53' E 031°02'0 0.0
2017-Mar-19 21:28S 29°53' E 031°02'0 0.0
2017-Mar-19 20:31S 29°53' E 031°02'0 0.0
2017-Mar-19 19:31S 29°53' E 031°02'0 0.0
2017-Mar-19 18:31S 29°53' E 031°02'0 0.0
2017-Mar-19 17:31S 29°53' E 031°02'0 0.0
2017-Mar-19 16:31S 29°53' E 031°02'0 0.0
2017-Mar-19 15:25S 29°53' E 031°02'0 0.0
2017-Mar-19 14:31S 29°53' E 031°02'0 0.0
2017-Mar-19 13:28S 29°53' E 031°02'0 0.2
2017-Mar-19 12:33S 29°53' E 031°02'6 6.4
2017-Mar-19 11:33S 29°48' E 031°05'0 0.4
2017-Mar-19 10:28S 29°47' E 031°05'0 0.2
2017-Mar-19 09:33S 29°47' E 031°06'1 1.2
2017-Mar-19 08:33S 29°47' E 031°07'2 2.0
2017-Mar-19 07:33S 29°48' E 031°09'1 0.9
2017-Mar-19 06:30S 29°47' E 031°10'0 0.1
2017-Mar-19 05:33S 29°47' E 031°10'0 0.1
2017-Mar-19 04:33S 29°47' E 031°10'0 0.1
2017-Mar-19 03:33S 29°47' E 031°10'0 0.0
2017-Mar-19 02:33S 29°47' E 031°10'0 0.0
2017-Mar-19 01:33S 29°47' E 031°10'0 0.0
2017-Mar-19 00:33S 29°47' E 031°10'0 0.0
2017-Mar-18 23:30S 29°47' E 031°10'0 0.0
2017-Mar-18 22:29S 29°47' E 031°10'0 0.0
2017-Mar-18 21:29S 29°47' E 031°10'0 0.0
2017-Mar-18 20:32S 29°47' E 031°10'0 0.0
2017-Mar-18 19:32S 29°47' E 031°10'0 0.0
2017-Mar-18 18:32S 29°47' E 031°10'0 0.0
2017-Mar-18 17:29S 29°47' E 031°10'0 0.0
2017-Mar-18 16:32S 29°47' E 031°10'0 0.0
2017-Mar-18 15:32S 29°47' E 031°10'0 0.0
2017-Mar-18 14:29S 29°47' E 031°10'0 0.1
2017-Mar-18 13:29S 29°47' E 031°10'0 0.1
2017-Mar-18 12:29S 29°47' E 031°10'0 0.1
2017-Mar-18 11:29S 29°47' E 031°10'0 0.0
2017-Mar-18 10:29S 29°47' E 031°10'0 0.1
2017-Mar-18 09:32S 29°47' E 031°10'0 0.0
2017-Mar-18 08:29S 29°47' E 031°10'0 0.0
2017-Mar-18 07:32S 29°47' E 031°10'0 0.0
2017-Mar-18 06:17S 29°47' E 031°10'0 0.0
2017-Mar-18 05:29S 29°47' E 031°10'0 0.0
2017-Mar-18 04:29S 29°48' E 031°10'0 0.0
2017-Mar-18 03:29S 29°48' E 031°10'0 0.0
2017-Mar-18 02:29S 29°48' E 031°10'0 0.0
2017-Mar-18 01:29S 29°48' E 031°10'0 0.0
2017-Mar-18 00:26S 29°48' E 031°10'0 0.0
2017-Mar-17 23:29S 29°48' E 031°10'0 0.0
2017-Mar-17 22:29S 29°48' E 031°10'0 0.0
2017-Mar-17 21:29S 29°47' E 031°10'0 0.0
2017-Mar-17 20:29S 29°47' E 031°10'0 0.0
2017-Mar-17 19:32S 29°48' E 031°10'0 0.0
2017-Mar-17 18:29S 29°47' E 031°10'0 0.0
2017-Mar-17 17:29S 29°47' E 031°10'0 0.0
2017-Mar-17 16:29S 29°47' E 031°10'0 0.0
2017-Mar-17 15:29S 29°47' E 031°10'0 0.0
2017-Mar-17 14:29S 29°47' E 031°10'0 0.0
2017-Mar-17 13:29S 29°47' E 031°10'0 0.0
2017-Mar-17 12:29S 29°47' E 031°10'0 0.0
2017-Mar-17 11:23S 29°47' E 031°10'0 0.0
2017-Mar-17 10:29S 29°47' E 031°10'0 0.0
2017-Mar-17 09:28S 29°47' E 031°10'0 0.0
2017-Mar-17 08:28S 29°47' E 031°10'0 0.0
2017-Mar-17 07:28S 29°47' E 031°10'0 0.0
2017-Mar-17 06:28S 29°47' E 031°10'0 0.0
2017-Mar-17 05:28S 29°47' E 031°10'0 0.0
2017-Mar-17 04:28S 29°47' E 031°10'0 0.0
2017-Mar-17 03:28S 29°47' E 031°10'0 0.0
2017-Mar-17 02:28S 29°47' E 031°10'0 0.0
2017-Mar-17 01:28S 29°47' E 031°10'0 0.0
2017-Mar-17 00:28S 29°47' E 031°10'0 0.0
2017-Mar-16 23:28S 29°47' E 031°10'0 0.1
2017-Mar-16 22:22S 29°47' E 031°10'0 0.0
2017-Mar-16 21:28S 29°47' E 031°10'1 0.9
2017-Mar-16 20:33S 29°48' E 031°11'9 8.9
2017-Mar-16 19:32S 29°44' E 031°21'1313.3
2017-Mar-16 18:33S 29°37' E 031°33'1312.5
2017-Mar-16 17:32S 29°30' E 031°46'  
Track history (hours):
 
Tides and Currents Weather Stations Pressure Air Temp Water Temp Dewpoint Dewpoint Depression Visibility Wind Speed Wind Dir Waves Ship Positions

Torm Horizon

Last reported at 2017-Mar-23 17:33 UTC. Time now 2017-Mar-23 18:13 UTC.
Position S 29°53' E 031°02'.

Length 183 m; draft 9.7 m.

Type: Ship. MMSI: 220566000.

Date/timePositionNaut miles runAvg speedWind from/ knotsBaromVisibWave heightAir tempDewpointWater temp
2017-Mar-23 17:33S 29°53' E 031°02'0 0.0
2017-Mar-23 16:30S 29°53' E 031°02'0 0.0
2017-Mar-23 15:30S 29°53' E 031°02'0 0.0
2017-Mar-23 14:30S 29°53' E 031°02'0 0.0
2017-Mar-23 13:30S 29°53' E 031°02'0 0.0
2017-Mar-23 12:33S 29°53' E 031°02'0 0.0
2017-Mar-23 11:33S 29°53' E 031°02'0 0.0
2017-Mar-23 10:30S 29°53' E 031°02'0 0.0
2017-Mar-23 09:30S 29°53' E 031°02'0 0.0
2017-Mar-23 08:33S 29°53' E 031°02'0 0.0
2017-Mar-23 07:30S 29°53' E 031°02'0 0.0
2017-Mar-23 06:33S 29°53' E 031°02'0 0.0
2017-Mar-23 05:30S 29°53' E 031°02'0 0.0
2017-Mar-23 04:30S 29°53' E 031°02'0 0.0
2017-Mar-23 03:33S 29°53' E 031°02'0 0.0
2017-Mar-23 02:33S 29°53' E 031°02'0 0.0
2017-Mar-23 01:24S 29°53' E 031°02'0 0.0
2017-Mar-23 00:30S 29°53' E 031°02'0 0.0
2017-Mar-22 23:30S 29°53' E 031°02'0 0.0
2017-Mar-22 22:33S 29°53' E 031°02'0 0.0
2017-Mar-22 21:30S 29°53' E 031°02'0 0.0
2017-Mar-22 20:33S 29°53' E 031°02'6 5.9
2017-Mar-22 19:33S 29°48' E 031°06'2 1.6
2017-Mar-22 18:33S 29°47' E 031°07'1 1.1
2017-Mar-22 17:29S 29°46' E 031°07'0 0.0
2017-Mar-22 16:29S 29°46' E 031°07'0 0.0
2017-Mar-22 15:29S 29°46' E 031°07'0 0.0
2017-Mar-22 14:32S 29°46' E 031°07'0 0.0
2017-Mar-22 13:29S 29°46' E 031°07'0 0.0
2017-Mar-22 12:29S 29°46' E 031°07'0 0.0
2017-Mar-22 11:29S 29°46' E 031°07'0 0.0
2017-Mar-22 10:29S 29°46' E 031°07'0 0.0
2017-Mar-22 09:29S 29°46' E 031°07'0 0.0
2017-Mar-22 08:29S 29°46' E 031°07'0 0.0
2017-Mar-22 07:29S 29°46' E 031°07'0 0.0
2017-Mar-22 06:32S 29°46' E 031°07'0 0.0
2017-Mar-22 05:32S 29°46' E 031°07'0 0.0
2017-Mar-22 04:32S 29°46' E 031°07'0 0.1
2017-Mar-22 03:32S 29°46' E 031°07'4 3.8
2017-Mar-22 02:33S 29°49' E 031°05'5 4.9
2017-Mar-22 01:29S 29°53' E 031°02'0 0.0
2017-Mar-22 00:29S 29°53' E 031°02'0 0.0
2017-Mar-21 23:29S 29°53' E 031°02'0 0.0
2017-Mar-21 22:32S 29°53' E 031°02'0 0.0
2017-Mar-21 21:29S 29°53' E 031°02'0 0.0
2017-Mar-21 20:32S 29°53' E 031°02'0 0.0
2017-Mar-21 19:32S 29°53' E 031°02'0 0.0
2017-Mar-21 18:32S 29°53' E 031°02'0 0.0
2017-Mar-21 17:29S 29°53' E 031°02'0 0.0
2017-Mar-21 16:29S 29°53' E 031°02'0 0.0
2017-Mar-21 15:29S 29°53' E 031°02'0 0.0
2017-Mar-21 14:29S 29°53' E 031°02'0 0.0
2017-Mar-21 13:29S 29°53' E 031°02'0 0.0
2017-Mar-21 12:32S 29°53' E 031°02'0 0.0
2017-Mar-21 11:32S 29°53' E 031°02'0 0.0
2017-Mar-21 10:32S 29°53' E 031°02'0 0.0
2017-Mar-21 09:29S 29°53' E 031°02'0 0.0
2017-Mar-21 08:29S 29°53' E 031°02'0 0.0
2017-Mar-21 07:29S 29°53' E 031°02'0 0.0
2017-Mar-21 06:32S 29°53' E 031°02'0 0.0
2017-Mar-21 05:32S 29°53' E 031°02'0 0.0
2017-Mar-21 04:29S 29°53' E 031°02'0 0.0
2017-Mar-21 03:29S 29°53' E 031°02'0 0.0
2017-Mar-21 02:32S 29°53' E 031°02'0 0.0
2017-Mar-21 01:32S 29°53' E 031°02'0 0.0
2017-Mar-21 00:29S 29°53' E 031°02'0 0.0
2017-Mar-20 23:32S 29°53' E 031°02'0 0.0
2017-Mar-20 22:32S 29°53' E 031°02'0 0.0
2017-Mar-20 21:32S 29°53' E 031°02'0 0.0
2017-Mar-20 20:32S 29°53' E 031°02'0 0.0
2017-Mar-20 19:32S 29°53' E 031°02'0 0.0
2017-Mar-20 18:32S 29°53' E 031°02'0 0.0
2017-Mar-20 17:31S 29°53' E 031°02'0 0.0
2017-Mar-20 16:31S 29°53' E 031°02'0 0.0
2017-Mar-20 15:31S 29°53' E 031°02'0 0.0
2017-Mar-20 14:28S 29°53' E 031°02'0 0.0
2017-Mar-20 13:28S 29°53' E 031°02'0 0.0
2017-Mar-20 12:28S 29°53' E 031°02'0 0.0
2017-Mar-20 11:28S 29°53' E 031°02'0 0.0
2017-Mar-20 10:28S 29°53' E 031°02'0 0.0
2017-Mar-20 09:28S 29°53' E 031°02'0 0.0
2017-Mar-20 08:28S 29°53' E 031°02'0 0.0
2017-Mar-20 07:31S 29°53' E 031°02'0 0.0
2017-Mar-20 06:31S 29°53' E 031°02'0 0.0
2017-Mar-20 05:31S 29°53' E 031°02'0 0.0
2017-Mar-20 04:31S 29°53' E 031°02'0 0.0
2017-Mar-20 03:31S 29°53' E 031°02'0 0.0
2017-Mar-20 02:28S 29°53' E 031°02'0 0.0
2017-Mar-20 01:31S 29°53' E 031°02'0 0.0
2017-Mar-20 00:31S 29°53' E 031°02'0 0.0
2017-Mar-19 23:31S 29°53' E 031°02'0 0.0
2017-Mar-19 22:31S 29°53' E 031°02'0 0.0
2017-Mar-19 21:28S 29°53' E 031°02'0 0.0
2017-Mar-19 20:31S 29°53' E 031°02'0 0.0
2017-Mar-19 19:31S 29°53' E 031°02'0 0.0
2017-Mar-19 18:31S 29°53' E 031°02'0 0.0
2017-Mar-19 17:31S 29°53' E 031°02'0 0.0
2017-Mar-19 16:31S 29°53' E 031°02'0 0.0
2017-Mar-19 15:25S 29°53' E 031°02'0 0.0
2017-Mar-19 14:31S 29°53' E 031°02'0 0.0
2017-Mar-19 13:28S 29°53' E 031°02'0 0.2
2017-Mar-19 12:33S 29°53' E 031°02'6 6.4
2017-Mar-19 11:33S 29°48' E 031°05'0 0.4
2017-Mar-19 10:28S 29°47' E 031°05'0 0.2
2017-Mar-19 09:33S 29°47' E 031°06'1 1.2
2017-Mar-19 08:33S 29°47' E 031°07'2 2.0
2017-Mar-19 07:33S 29°48' E 031°09'1 0.9
2017-Mar-19 06:30S 29°47' E 031°10'0 0.1
2017-Mar-19 05:33S 29°47' E 031°10'0 0.1
2017-Mar-19 04:33S 29°47' E 031°10'0 0.1
2017-Mar-19 03:33S 29°47' E 031°10'0 0.0
2017-Mar-19 02:33S 29°47' E 031°10'0 0.0
2017-Mar-19 01:33S 29°47' E 031°10'0 0.0
2017-Mar-19 00:33S 29°47' E 031°10'0 0.0
2017-Mar-18 23:30S 29°47' E 031°10'0 0.0
2017-Mar-18 22:29S 29°47' E 031°10'0 0.0
2017-Mar-18 21:29S 29°47' E 031°10'0 0.0
2017-Mar-18 20:32S 29°47' E 031°10'0 0.0
2017-Mar-18 19:32S 29°47' E 031°10'0 0.0
2017-Mar-18 18:32S 29°47' E 031°10'0 0.0
2017-Mar-18 17:29S 29°47' E 031°10'0 0.0
2017-Mar-18 16:32S 29°47' E 031°10'0 0.0
2017-Mar-18 15:32S 29°47' E 031°10'0 0.0
2017-Mar-18 14:29S 29°47' E 031°10'0 0.1
2017-Mar-18 13:29S 29°47' E 031°10'0 0.1
2017-Mar-18 12:29S 29°47' E 031°10'0 0.1
2017-Mar-18 11:29S 29°47' E 031°10'0 0.0
2017-Mar-18 10:29S 29°47' E 031°10'0 0.1
2017-Mar-18 09:32S 29°47' E 031°10'0 0.0
2017-Mar-18 08:29S 29°47' E 031°10'0 0.0
2017-Mar-18 07:32S 29°47' E 031°10'0 0.0
2017-Mar-18 06:17S 29°47' E 031°10'0 0.0
2017-Mar-18 05:29S 29°47' E 031°10'0 0.0
2017-Mar-18 04:29S 29°48' E 031°10'0 0.0
2017-Mar-18 03:29S 29°48' E 031°10'0 0.0
2017-Mar-18 02:29S 29°48' E 031°10'0 0.0
2017-Mar-18 01:29S 29°48' E 031°10'0 0.0
2017-Mar-18 00:26S 29°48' E 031°10'0 0.0
2017-Mar-17 23:29S 29°48' E 031°10'0 0.0
2017-Mar-17 22:29S 29°48' E 031°10'0 0.0
2017-Mar-17 21:29S 29°47' E 031°10'0 0.0
2017-Mar-17 20:29S 29°47' E 031°10'0 0.0
2017-Mar-17 19:32S 29°48' E 031°10'0 0.0
2017-Mar-17 18:29S 29°47' E 031°10'0 0.0
2017-Mar-17 17:29S 29°47' E 031°10'0 0.0
2017-Mar-17 16:29S 29°47' E 031°10'0 0.0
2017-Mar-17 15:29S 29°47' E 031°10'0 0.0
2017-Mar-17 14:29S 29°47' E 031°10'0 0.0
2017-Mar-17 13:29S 29°47' E 031°10'0 0.0
2017-Mar-17 12:29S 29°47' E 031°10'0 0.0
2017-Mar-17 11:23S 29°47' E 031°10'0 0.0
2017-Mar-17 10:29S 29°47' E 031°10'0 0.0
2017-Mar-17 09:28S 29°47' E 031°10'0 0.0
2017-Mar-17 08:28S 29°47' E 031°10'0 0.0
2017-Mar-17 07:28S 29°47' E 031°10'0 0.0
2017-Mar-17 06:28S 29°47' E 031°10'0 0.0
2017-Mar-17 05:28S 29°47' E 031°10'0 0.0
2017-Mar-17 04:28S 29°47' E 031°10'0 0.0
2017-Mar-17 03:28S 29°47' E 031°10'0 0.0
2017-Mar-17 02:28S 29°47' E 031°10'0 0.0
2017-Mar-17 01:28S 29°47' E 031°10'0 0.0
2017-Mar-17 00:28S 29°47' E 031°10'0 0.0
2017-Mar-16 23:28S 29°47' E 031°10'0 0.1
2017-Mar-16 22:22S 29°47' E 031°10'0 0.0
2017-Mar-16 21:28S 29°47' E 031°10'1 0.9
2017-Mar-16 20:33S 29°48' E 031°11'9 8.9
2017-Mar-16 19:32S 29°44' E 031°21'1313.3
2017-Mar-16 18:33S 29°37' E 031°33'1312.5
2017-Mar-16 17:32S 29°30' E 031°46'  

Dump ship's entire track history